LZB977 LBSF-LBWN

Flight info

Callsign LZB977
Flight time 0h 43m
Altitude 27000
Route UMPIT T343 DICXA
Aircraft A320/M-SDE3FGHIRWY/LB1

Departure

Time 2026-05-04 07:57
Airport Sofia Airport (LBSF)

Arrival

Time 2026-05-04 08:40
Airport Varna Airport (LBWN)
Time Latitude Longitude Altitude Speed Heading
2026-05-04 07:33 42.69027 23.41514 1753 ft 0 kts 251°
2026-05-04 07:45 42.69032 23.41533 1743 ft 2 kts 251°
2026-05-04 07:45 42.69037 23.41555 1744 ft 2 kts 251°
2026-05-04 07:45 42.69044 23.41577 1744 ft 2 kts 229°
2026-05-04 07:45 42.69055 23.41595 1744 ft 2 kts 229°
2026-05-04 07:46 42.69066 23.41612 1747 ft 3 kts 231°
2026-05-04 07:46 42.69076 23.41632 1745 ft 3 kts 252°
2026-05-04 07:46 42.69079 23.41649 1746 ft 0 kts 264°
2026-05-04 07:49 42.69079 23.41630 1746 ft 1 kts 276°
2026-05-04 07:49 42.69081 23.41624 1744 ft 3 kts 287°
2026-05-04 07:49 42.69112 23.41586 1748 ft 6 kts 330°
2026-05-04 07:50 42.69147 23.41569 1753 ft 5 kts 341°
2026-05-04 07:50 42.69174 23.41557 1751 ft 3 kts 341°
2026-05-04 07:50 42.69194 23.41547 1750 ft 3 kts 341°
2026-05-04 07:50 42.69222 23.41535 1746 ft 5 kts 341°
2026-05-04 07:51 42.69266 23.41516 1746 ft 8 kts 347°
2026-05-04 07:51 42.69333 23.41518 1747 ft 11 kts
2026-05-04 07:51 42.69422 23.41531 1753 ft 14 kts
2026-05-04 07:51 42.69464 23.41645 1748 ft 17 kts 94°
2026-05-04 07:52 42.69453 23.41817 1749 ft 19 kts 94°
2026-05-04 07:52 42.69443 23.42003 1753 ft 21 kts 95°
2026-05-04 07:52 42.69431 23.42204 1753 ft 22 kts 94°
2026-05-04 07:52 42.69419 23.42419 1751 ft 23 kts 95°
2026-05-04 07:53 42.69405 23.42646 1745 ft 25 kts 94°
2026-05-04 07:54 42.69394 23.43949 1752 ft 0 kts
2026-05-04 07:55 42.69395 23.43949 1752 ft 1 kts
2026-05-04 07:55 42.69436 23.43952 1753 ft 8 kts
2026-05-04 07:55 42.69482 23.43956 1754 ft 6 kts
2026-05-04 07:55 42.69518 23.43934 1750 ft 6 kts 291°
2026-05-04 07:56 42.69522 23.43887 1747 ft 4 kts 274°
2026-05-04 07:56 42.69525 23.43817 1747 ft 23 kts 274°
2026-05-04 07:56 42.69561 23.43241 1754 ft 96 kts 275°
2026-05-04 07:56 42.69633 23.42069 1753 ft 150 kts 275°
2026-05-04 07:57 42.69735 23.40537 2098 ft 168 kts 276°
2026-05-04 07:57 42.69921 23.38962 2771 ft 172 kts 290°
2026-05-04 07:57 42.70458 23.37506 3552 ft 174 kts 306°
2026-05-04 07:57 42.71274 23.36283 4157 ft 179 kts 321°
2026-05-04 07:58 42.72326 23.35348 4721 ft 181 kts 336°
2026-05-04 07:58 42.73521 23.34870 5396 ft 180 kts 353°
2026-05-04 07:58 42.74811 23.34652 5795 ft 195 kts 355°
2026-05-04 07:58 42.76246 23.34434 6057 ft 220 kts 355°
2026-05-04 07:59 42.77840 23.34491 6455 ft 242 kts 17°
2026-05-04 07:59 42.79282 23.35725 7110 ft 253 kts 49°
2026-05-04 07:59 42.80022 23.37905 7962 ft 261 kts 76°
2026-05-04 07:59 42.80321 23.40340 8953 ft 261 kts 77°
2026-05-04 08:00 42.80622 23.42789 9928 ft 262 kts 77°
2026-05-04 08:00 42.80934 23.45303 10456 ft 280 kts 77°
2026-05-04 08:00 42.81276 23.48020 10703 ft 303 kts 77°
2026-05-04 08:02 42.84021 23.69944 15109 ft 355 kts 79°
2026-05-04 08:02 42.84435 23.73290 15731 ft 361 kts 79°
2026-05-04 08:02 42.84852 23.76686 16326 ft 366 kts 79°
2026-05-04 08:03 42.85272 23.80130 16913 ft 371 kts 79°
2026-05-04 08:03 42.85692 23.83577 17487 ft 376 kts 80°
2026-05-04 08:03 42.86123 23.87110 18049 ft 381 kts 80°
2026-05-04 08:03 42.86559 23.90694 18559 ft 387 kts 81°
2026-05-04 08:04 42.86999 23.94334 19044 ft 391 kts 81°
2026-05-04 08:04 42.87443 23.98005 19594 ft 393 kts 81°
2026-05-04 08:04 42.87888 24.01686 20160 ft 395 kts 82°
2026-05-04 08:04 42.88333 24.05389 20721 ft 396 kts 82°
2026-05-04 08:05 42.88780 24.09106 21278 ft 398 kts 82°
2026-05-04 08:05 42.89229 24.12840 21802 ft 400 kts 82°
2026-05-04 08:05 42.89676 24.16595 22313 ft 402 kts 82°
2026-05-04 08:05 42.90127 24.20370 22841 ft 404 kts 82°
2026-05-04 08:06 42.90579 24.24162 23356 ft 406 kts 82°
2026-05-04 08:06 42.91031 24.27975 23847 ft 408 kts 82°
2026-05-04 08:06 42.91482 24.31810 24263 ft 410 kts 82°
2026-05-04 08:06 42.91934 24.35662 24661 ft 412 kts 82°
2026-05-04 08:08 42.95130 24.63131 27109 ft 424 kts 83°
2026-05-04 08:08 42.95582 24.67106 27132 ft 424 kts 83°
2026-05-04 08:10 42.99180 24.98879 27121 ft 423 kts 83°
2026-05-04 08:11 42.99625 25.02842 27123 ft 422 kts 83°
2026-05-04 08:11 43.00507 25.10778 27112 ft 422 kts 83°
2026-05-04 08:11 43.00945 25.14738 27109 ft 422 kts 83°
2026-05-04 08:12 43.01376 25.18645 27108 ft 421 kts 83°
2026-05-04 08:12 43.01816 25.22655 27111 ft 421 kts 83°
2026-05-04 08:12 43.02241 25.26563 27107 ft 421 kts 83°
2026-05-04 08:12 43.02672 25.30520 27110 ft 421 kts 83°
2026-05-04 08:13 43.03104 25.34481 27113 ft 421 kts 83°
2026-05-04 08:13 43.03533 25.38441 27113 ft 421 kts 83°
2026-05-04 08:13 43.03962 25.42403 27115 ft 421 kts 83°
2026-05-04 08:13 43.04390 25.46362 27116 ft 421 kts 83°
2026-05-04 08:14 43.04818 25.50321 27122 ft 421 kts 83°
2026-05-04 08:14 43.05244 25.54283 27121 ft 421 kts 83°
2026-05-04 08:14 43.05666 25.58244 27123 ft 421 kts 83°
2026-05-04 08:16 43.08577 25.85993 27130 ft 421 kts 82°
2026-05-04 08:16 43.08992 25.89957 27129 ft 421 kts 83°
2026-05-04 08:16 43.09402 25.93915 27125 ft 421 kts 82°
2026-05-04 08:17 43.09809 25.97879 27120 ft 421 kts 83°
2026-05-04 08:17 43.10213 26.01844 27119 ft 420 kts 83°
2026-05-04 08:17 43.10610 26.05749 27112 ft 420 kts 82°
2026-05-04 08:17 43.11012 26.09709 27110 ft 420 kts 82°
2026-05-04 08:19 43.13857 26.37962 22042 ft 427 kts 80°
2026-05-04 08:19 43.14250 26.41961 21447 ft 421 kts 80°
2026-05-04 08:20 43.14637 26.45907 20859 ft 415 kts 80°
2026-05-04 08:20 43.15019 26.49799 20310 ft 410 kts 80°
2026-05-04 08:20 43.15394 26.53639 19772 ft 405 kts 79°
2026-05-04 08:20 43.15765 26.57436 19260 ft 399 kts 79°
2026-05-04 08:21 43.16130 26.61180 18766 ft 394 kts 79°
2026-05-04 08:21 43.16488 26.64889 18258 ft 390 kts 79°
2026-05-04 08:21 43.16838 26.68554 17749 ft 386 kts 79°
2026-05-04 08:21 43.17183 26.72175 17246 ft 381 kts 79°
2026-05-04 08:22 43.17526 26.75753 16764 ft 377 kts 79°
2026-05-04 08:22 43.17866 26.79298 16267 ft 373 kts 79°
2026-05-04 08:24 43.20138 27.03382 12532 ft 354 kts 79°
2026-05-04 08:24 43.20241 27.06758 11953 ft 357 kts 89°
2026-05-04 08:24 43.20032 27.10137 11360 ft 355 kts 90°
2026-05-04 08:24 43.19809 27.13491 10831 ft 350 kts 91°
2026-05-04 08:25 43.19584 27.16737 10705 ft 334 kts 90°
2026-05-04 08:25 43.19369 27.19836 10579 ft 320 kts 90°
2026-05-04 08:25 43.19166 27.22819 10451 ft 308 kts 90°
2026-05-04 08:25 43.18977 27.25646 10333 ft 297 kts 90°
2026-05-04 08:26 43.18791 27.28409 10164 ft 287 kts 90°
2026-05-04 08:27 43.17575 27.46545 8716 ft 269 kts 89°
2026-05-04 08:28 43.17399 27.49102 8481 ft 269 kts 89°
2026-05-04 08:28 43.17222 27.51652 8247 ft 269 kts 90°
2026-05-04 08:28 43.17046 27.54199 8012 ft 268 kts 90°
2026-05-04 08:28 43.16870 27.56744 7780 ft 267 kts 90°
2026-05-04 08:29 43.16692 27.59278 7549 ft 267 kts 90°
2026-05-04 08:29 43.16512 27.61809 7326 ft 267 kts 90°
2026-05-04 08:29 43.16334 27.64348 7096 ft 267 kts 90°
2026-05-04 08:31 43.14893 27.81390 5471 ft 239 kts 91°
2026-05-04 08:33 43.13500 27.96845 4000 ft 222 kts 91°
2026-05-04 08:33 43.13311 27.98935 4006 ft 221 kts 91°
2026-05-04 08:35 43.15990 28.08853 3453 ft 177 kts 345°
2026-05-04 08:35 43.17125 28.08160 3211 ft 180 kts 338°
2026-05-04 08:35 43.18245 28.07417 3030 ft 179 kts 338°
2026-05-04 08:35 43.19369 28.06673 3007 ft 179 kts 338°
2026-05-04 08:37 43.21778 27.98046 2676 ft 159 kts 285°
2026-05-04 08:37 43.21908 27.96544 2453 ft 162 kts 284°
2026-05-04 08:37 43.22039 27.94985 2213 ft 167 kts 285°
2026-05-04 08:38 43.22203 27.93425 1937 ft 163 kts 285°
2026-05-04 08:38 43.22367 27.91916 1753 ft 155 kts 284°
2026-05-04 08:38 43.22504 27.90453 1464 ft 156 kts 282°
2026-05-04 08:40 43.23262 27.81862 223 ft 24 kts 275°
2026-05-04 08:40 43.23306 27.81731 223 ft 11 kts 312°
2026-05-04 08:40 43.23343 27.81684 223 ft 8 kts 319°
2026-05-04 08:41 43.23397 27.81630 222 ft 11 kts 330°
2026-05-04 08:41 43.23473 27.81630 222 ft 12 kts 24°
2026-05-04 08:41 43.23515 27.81729 222 ft 12 kts 82°
2026-05-04 08:41 43.23508 27.81837 222 ft 11 kts 97°
2026-05-04 08:42 43.23499 27.81933 222 ft 10 kts 97°
2026-05-04 08:42 43.23488 27.82055 222 ft 16 kts 97°
2026-05-04 08:42 43.23480 27.82152 222 ft 15 kts 96°
2026-05-04 08:42 43.23479 27.82262 222 ft 11 kts 89°
2026-05-04 08:43 43.23474 27.82361 222 ft 10 kts 97°
2026-05-04 08:43 43.23466 27.82451 222 ft 9 kts 96°
2026-05-04 08:43 43.23459 27.82532 222 ft 8 kts 96°
2026-05-04 08:43 43.23461 27.82601 222 ft 5 kts 54°
2026-05-04 08:44 43.23493 27.82614 222 ft 5 kts 17°
2026-05-04 08:44 43.23517 27.82619 222 ft 0 kts